Finley, Australia
Current Conditions -  °F | °C
As of 10:00 AM on Thursday 27 Nov 2014 (Local Time) from YMAY Reporting Station
Clear Clear  
Wind Chill: 70°   Ceiling: Unl
Heat Index: 70°   Visibility: 6mi
Dew Point: 50°   Wind: 8mph
Humidity: 49%   Direction: 130°SE
Pressure: 30.15"   Gusts: NA
Location:  35.65°S, 145.58°E
Report Text: YMAY 262300Z AUTO 13007KT 090V160 9999 // NCD 21/10 Q1021
Loading
Personal Weather Stations






























Interactive Weather Map New forecast layout! Learn more

10-Day Weather Forecast

Advertisements
Track Severe Weather on mobile